Time;durP1;ratioP1;P1;durP2;ratioP2;P2;SDS_P1;SDS_P2;PMS_P1;PMS_P2;Temp;Humidity;BMP_temperature;BMP_pressure;BME280_temperature;BME280_humidity;BME280_pressure;Samples;Min_cycle;Max_cycle;Signal;HPM_P1;HPM_P2
2022/07/07 00:02:10;;;;;;;1.13;0.80;;;18.30;99.90;;;;;;4993698;28;20065;-50
2022/07/07 00:04:36;;;;;;;1.23;1.10;;;18.30;99.90;;;;;;4994217;28;20057;-50
2022/07/07 00:07:02;;;;;;;1.85;0.88;;;18.20;99.90;;;;;;4992642;28;20429;-49
2022/07/07 00:09:29;;;;;;;1.67;1.10;;;18.20;99.90;;;;;;4993527;28;20046;-51
2022/07/07 00:11:55;;;;;;;2.03;0.80;;;18.10;99.90;;;;;;4993772;28;20026;-51
2022/07/07 00:14:21;;;;;;;1.73;1.10;;;18.10;99.90;;;;;;4992949;28;20166;-51
2022/07/07 00:16:47;;;;;;;1.77;1.13;;;18.10;99.90;;;;;;4993826;28;20521;-49
2022/07/07 00:19:13;;;;;;;3.90;1.10;;;18.00;99.90;;;;;;4992372;28;20125;-52
2022/07/07 00:21:38;;;;;;;2.50;1.00;;;18.00;99.90;;;;;;4992391;28;20061;-48
2022/07/07 00:24:04;;;;;;;10.63;1.30;;;17.90;99.90;;;;;;4993828;28;20023;-52
2022/07/07 00:26:31;;;;;;;1.92;0.88;;;17.90;99.90;;;;;;4994064;28;20069;-48
2022/07/07 00:28:57;;;;;;;6.68;1.20;;;18.00;99.90;;;;;;4994066;28;20031;-51
2022/07/07 00:31:22;;;;;;;3.17;1.20;;;18.00;99.90;;;;;;4993219;28;20033;-51
2022/07/07 00:33:48;;;;;;;1.30;0.95;;;18.10;99.90;;;;;;4992726;28;20033;-53
2022/07/07 00:36:14;;;;;;;5.28;1.52;;;18.10;99.90;;;;;;4994182;28;20027;-47
2022/07/07 00:38:40;;;;;;;5.63;1.15;;;18.10;99.90;;;;;;4993667;28;20031;-50
2022/07/07 00:41:07;;;;;;;1.63;1.00;;;18.00;99.90;;;;;;4992557;28;20069;-48
2022/07/07 00:43:42;;;;;;;2.42;0.95;;;17.90;99.90;;;;;;4995441;28;20027;-49
2022/07/07 00:46:08;;;;;;;0.80;0.80;;;18.00;99.90;;;;;;4996087;28;20049;-51
2022/07/07 00:48:35;;;;;;;3.33;0.75;;;18.00;99.90;;;;;;4997284;28;20054;-52
2022/07/07 00:51:03;;;;;;;2.72;0.95;;;18.10;99.90;;;;;;4995933;28;20025;-48
2022/07/07 00:53:28;;;;;;;0.90;0.80;;;18.10;99.90;;;;;;4995837;28;20030;-49
2022/07/07 00:55:54;;;;;;;1.17;0.90;;;18.10;99.90;;;;;;4995911;28;20068;-51
2022/07/07 00:58:20;;;;;;;2.08;1.10;;;18.10;99.90;;;;;;4995888;28;20392;-51
2022/07/07 01:00:45;;;;;;;7.05;1.13;;;18.10;99.90;;;;;;4996866;28;20053;-48
2022/07/07 01:03:12;;;;;;;1.23;0.90;;;18.00;99.90;;;;;;4996653;28;20030;-47
2022/07/07 01:05:40;;;;;;;1.80;1.00;;;18.00;99.90;;;;;;4997245;28;20633;-48
2022/07/07 01:08:08;;;;;;;1.48;1.10;;;18.00;99.90;;;;;;4995603;28;20022;-47
2022/07/07 01:10:34;;;;;;;4.35;0.93;;;18.00;99.90;;;;;;4996849;28;20054;-53
2022/07/07 01:13:04;;;;;;;3.22;0.95;;;18.00;99.90;;;;;;4995525;28;20133;-48
2022/07/07 01:15:30;;;;;;;2.35;1.00;;;18.00;99.90;;;;;;4995532;28;20026;-48
2022/07/07 01:17:56;;;;;;;1.95;1.15;;;18.00;99.90;;;;;;4996753;28;20371;-51
2022/07/07 01:20:22;;;;;;;4.55;1.10;;;18.10;99.90;;;;;;4995443;28;20029;-50
2022/07/07 01:22:52;;;;;;;1.35;1.00;;;18.10;99.90;;;;;;4996564;28;20117;-50
2022/07/07 01:25:18;;;;;;;3.33;0.90;;;18.10;99.90;;;;;;4996928;28;20027;-53
2022/07/07 01:27:44;;;;;;;1.52;0.77;;;18.10;99.90;;;;;;4995263;28;20045;-47
2022/07/07 01:30:10;;;;;;;2.40;1.00;;;18.10;99.90;;;;;;4996510;28;20388;-47
2022/07/07 01:32:36;;;;;;;4.40;1.00;;;18.10;99.90;;;;;;4995150;28;20050;-50
2022/07/07 01:35:02;;;;;;;1.75;0.90;;;18.10;99.90;;;;;;4995367;28;20077;-54
2022/07/07 01:37:28;;;;;;;1.15;0.75;;;18.00;99.90;;;;;;4995146;28;20071;-53
2022/07/07 01:39:54;;;;;;;4.43;1.25;;;18.10;99.90;;;;;;4995222;28;20101;-47
2022/07/07 01:42:20;;;;;;;3.08;0.90;;;18.10;99.90;;;;;;4995070;28;20026;-49
2022/07/07 01:44:45;;;;;;;1.02;0.77;;;18.00;99.90;;;;;;4996264;28;20023;-49
2022/07/07 01:47:13;;;;;;;2.40;0.90;;;18.00;99.90;;;;;;4996142;28;20023;-47
2022/07/07 01:49:39;;;;;;;1.98;0.98;;;18.00;99.90;;;;;;4996078;28;20096;-49
2022/07/07 01:52:06;;;;;;;3.58;1.00;;;18.00;99.90;;;;;;4996010;28;20084;-47
2022/07/07 01:54:32;;;;;;;6.53;1.20;;;18.00;99.90;;;;;;4994806;28;20031;-48
2022/07/07 01:56:58;;;;;;;2.75;1.00;;;18.00;99.90;;;;;;4994742;28;20541;-53
2022/07/07 01:59:24;;;;;;;6.00;1.10;;;18.00;99.90;;;;;;4995960;28;20057;-49
2022/07/07 02:01:49;;;;;;;3.05;0.98;;;18.00;99.90;;;;;;4994880;28;20069;-49
2022/07/07 02:04:15;;;;;;;1.83;0.80;;;18.00;99.90;;;;;;4994811;28;20098;-49
2022/07/07 02:06:41;;;;;;;1.00;0.85;;;18.10;99.90;;;;;;4995796;28;20508;-53
2022/07/07 02:09:07;;;;;;;2.22;1.20;;;18.10;99.90;;;;;;4994566;28;20030;-48
2022/07/07 02:11:33;;;;;;;4.00;1.25;;;18.10;99.90;;;;;;4995689;28;20109;-48
2022/07/07 02:13:58;;;;;;;3.47;1.35;;;18.10;99.90;;;;;;4995932;28;20088;-47
2022/07/07 02:16:25;;;;;;;1.75;1.00;;;18.10;99.90;;;;;;4995547;28;20022;-48
2022/07/07 02:18:59;;;;;;;1.00;0.88;;;18.20;99.90;;;;;;4994285;28;20037;-50
2022/07/07 02:21:25;;;;;;;1.95;1.10;;;18.20;99.90;;;;;;4994302;28;20027;-52
2022/07/07 02:23:53;;;;;;;1.45;0.90;;;18.20;99.90;;;;;;4995465;28;20037;-52
2022/07/07 02:26:19;;;;;;;1.60;1.05;;;18.20;99.90;;;;;;4994177;28;20029;-49
2022/07/07 02:28:45;;;;;;;1.90;0.90;;;18.20;99.90;;;;;;4994094;28;20048;-48
2022/07/07 02:31:11;;;;;;;2.85;0.90;;;18.20;99.90;;;;;;4994073;28;20030;-48
2022/07/07 02:33:37;;;;;;;7.47;0.95;;;18.20;99.90;;;;;;4994001;28;20026;-48
2022/07/07 02:36:05;;;;;;;1.60;0.85;;;18.20;99.90;;;;;;4994298;28;20023;-47
2022/07/07 02:38:32;;;;;;;2.05;0.80;;;18.30;99.90;;;;;;4994345;28;20026;-47
2022/07/07 02:40:58;;;;;;;1.73;0.80;;;18.30;99.90;;;;;;4995085;28;20022;-49
2022/07/07 02:43:24;;;;;;;3.03;1.20;;;18.20;99.90;;;;;;4993907;28;20065;-50
2022/07/07 02:45:51;;;;;;;1.83;1.00;;;18.20;99.90;;;;;;4995353;28;20019;-47
2022/07/07 02:48:22;;;;;;;3.35;1.10;;;18.20;99.90;;;;;;4993885;28;20068;-47
2022/07/07 02:50:49;;;;;;;4.53;1.25;;;18.20;99.90;;;;;;4995028;28;20605;-47
2022/07/07 02:53:15;;;;;;;3.25;1.10;;;18.20;99.90;;;;;;4994893;28;20034;-47
2022/07/07 02:55:42;;;;;;;0.85;0.77;;;18.20;99.90;;;;;;4994887;28;20041;-47
2022/07/07 02:58:09;;;;;;;2.03;0.82;;;18.30;99.90;;;;;;4994497;28;20121;-47
2022/07/07 03:00:35;;;;;;;2.60;1.27;;;18.20;99.90;;;;;;4994090;28;20026;-49
2022/07/07 03:03:03;;;;;;;0.70;0.70;;;18.20;99.90;;;;;;4993677;28;20057;-49
2022/07/07 03:05:28;;;;;;;4.18;1.30;;;18.20;99.90;;;;;;4993072;28;20030;-47
2022/07/07 03:07:54;;;;;;;3.25;0.90;;;18.20;99.90;;;;;;4994735;28;20022;-50
2022/07/07 03:10:20;;;;;;;3.45;0.90;;;18.20;99.90;;;;;;4993709;28;20062;-49
2022/07/07 03:12:46;;;;;;;4.93;1.20;;;18.20;99.90;;;;;;4993635;28;20180;-51
2022/07/07 03:15:13;;;;;;;1.58;0.88;;;18.20;99.90;;;;;;4993335;28;20110;-53
2022/07/07 03:17:46;;;;;;;2.47;1.00;;;18.20;99.90;;;;;;4993280;28;20030;-50
2022/07/07 03:20:13;;;;;;;3.20;1.17;;;18.20;99.90;;;;;;4994349;28;20392;-47
2022/07/07 03:22:40;;;;;;;6.25;1.20;;;18.20;99.90;;;;;;4993175;28;20026;-50
2022/07/07 03:25:07;;;;;;;1.40;0.98;;;18.20;99.90;;;;;;4993201;28;20026;-49
2022/07/07 03:27:33;;;;;;;5.38;0.93;;;18.20;99.90;;;;;;4994260;28;20026;-47
2022/07/07 03:29:59;;;;;;;1.02;0.80;;;18.20;99.90;;;;;;4993671;28;20034;-51
2022/07/07 03:32:25;;;;;;;1.15;0.85;;;18.20;99.90;;;;;;4993371;28;20113;-47
2022/07/07 03:34:51;;;;;;;3.08;1.23;;;18.20;99.90;;;;;;4994280;28;20018;-49
2022/07/07 03:37:16;;;;;;;1.25;0.95;;;18.20;99.90;;;;;;4993062;28;20022;-48
2022/07/07 03:39:42;;;;;;;1.23;0.70;;;18.20;99.90;;;;;;4993218;28;20029;-52
2022/07/07 03:42:08;;;;;;;4.03;1.20;;;18.20;99.90;;;;;;4993136;28;20029;-50
2022/07/07 03:44:34;;;;;;;3.03;0.98;;;18.20;99.90;;;;;;4994177;28;20107;-47
2022/07/07 03:46:59;;;;;;;3.13;1.10;;;18.20;99.90;;;;;;4994138;28;20023;-49
2022/07/07 03:49:25;;;;;;;2.10;0.93;;;18.20;99.90;;;;;;4993948;28;20030;-54
2022/07/07 03:51:51;;;;;;;1.00;1.00;;;18.10;99.90;;;;;;4994456;28;20033;-51
2022/07/07 03:54:16;;;;;;;3.03;0.90;;;18.10;99.90;;;;;;4993110;28;20076;-51
2022/07/07 03:56:42;;;;;;;2.80;1.30;;;18.10;99.90;;;;;;4992719;28;20058;-52
2022/07/07 03:59:08;;;;;;;3.67;0.85;;;18.10;99.90;;;;;;4992646;28;20022;-51
2022/07/07 04:01:33;;;;;;;2.20;1.17;;;18.20;99.90;;;;;;4992981;28;20030;-47
2022/07/07 04:03:59;;;;;;;2.25;0.90;;;18.20;99.90;;;;;;4993021;28;20030;-52
2022/07/07 04:06:24;;;;;;;3.33;1.10;;;18.20;99.90;;;;;;4993929;28;20022;-52
2022/07/07 04:08:50;;;;;;;2.60;1.20;;;18.20;99.90;;;;;;4994126;28;20034;-51
2022/07/07 04:11:19;;;;;;;20.00;8.60;;;18.20;99.90;;;;;;4992627;28;20022;-48
2022/07/07 04:13:44;;;;;;;4.53;2.03;;;18.30;99.90;;;;;;4993807;28;20053;-48
2022/07/07 04:16:10;;;;;;;2.33;1.13;;;18.30;99.90;;;;;;4992528;28;20027;-47
2022/07/07 04:18:35;;;;;;;2.03;1.20;;;18.30;99.90;;;;;;4996967;28;20022;-48
2022/07/07 04:21:01;;;;;;;3.60;1.00;;;18.40;99.90;;;;;;4996530;28;20030;-47
2022/07/07 04:23:27;;;;;;;2.80;1.33;;;18.40;99.90;;;;;;4997755;28;20061;-47
2022/07/07 04:25:53;;;;;;;2.78;1.17;;;18.40;99.90;;;;;;4996788;28;20090;-48
2022/07/07 04:28:19;;;;;;;2.60;1.38;;;18.40;99.90;;;;;;4996728;28;20037;-47
2022/07/07 04:30:45;;;;;;;3.40;1.33;;;18.40;99.90;;;;;;4997593;28;20038;-51
2022/07/07 04:33:11;;;;;;;4.38;1.20;;;18.40;99.90;;;;;;4996384;28;20033;-47
2022/07/07 04:35:36;;;;;;;1.70;1.17;;;18.40;99.90;;;;;;4996651;28;20035;-47
2022/07/07 04:38:02;;;;;;;6.00;3.20;;;18.40;99.90;;;;;;4998412;28;20078;-48
2022/07/07 04:40:28;;;;;;;4.93;1.70;;;18.50;99.90;;;;;;4997315;28;20026;-48
2022/07/07 04:42:53;;;;;;;3.22;1.70;;;18.60;99.90;;;;;;4996528;28;20030;-49
2022/07/07 04:45:19;;;;;;;1.75;1.17;;;18.50;99.90;;;;;;4996221;28;20121;-48
2022/07/07 04:47:45;;;;;;;3.28;1.20;;;18.60;99.90;;;;;;4996230;28;20105;-49
2022/07/07 04:50:12;;;;;;;3.63;1.05;;;18.60;99.90;;;;;;4996045;28;20122;-49
2022/07/07 04:52:39;;;;;;;4.45;1.60;;;18.70;99.90;;;;;;4996343;28;20026;-48
2022/07/07 04:55:06;;;;;;;3.15;1.10;;;18.70;99.90;;;;;;4997437;28;20034;-48
2022/07/07 04:57:32;;;;;;;1.52;1.30;;;18.80;99.90;;;;;;4996560;28;20036;-53
2022/07/07 04:59:58;;;;;;;2.67;1.40;;;18.80;99.90;;;;;;4995723;28;20027;-49
2022/07/07 05:02:24;;;;;;;3.65;1.05;;;18.80;99.90;;;;;;4996259;28;20073;-48
2022/07/07 05:04:49;;;;;;;3.85;1.40;;;18.80;99.90;;;;;;4994650;28;20058;-52
2022/07/07 05:07:16;;;;;;;4.97;1.35;;;18.80;99.90;;;;;;4994605;28;20117;-47
2022/07/07 05:09:42;;;;;;;9.40;1.60;;;18.90;99.90;;;;;;4995724;28;20076;-49
2022/07/07 05:12:08;;;;;;;3.05;1.77;;;18.80;99.90;;;;;;4994669;28;20026;-51
2022/07/07 05:14:34;;;;;;;12.75;6.28;;;18.80;99.90;;;;;;4994492;28;20027;-47
2022/07/07 05:17:00;;;;;;;4.30;2.00;;;18.90;99.90;;;;;;4995724;28;20056;-48
2022/07/07 05:19:26;;;;;;;8.05;3.03;;;18.90;99.90;;;;;;4994344;28;20030;-47
2022/07/07 05:21:52;;;;;;;7.55;3.03;;;19.00;99.90;;;;;;4994291;28;20018;-48
2022/07/07 05:24:18;;;;;;;5.05;3.05;;;19.00;99.90;;;;;;4994845;28;20380;-51
2022/07/07 05:26:44;;;;;;;3.97;2.25;;;18.90;99.90;;;;;;4995524;28;20018;-47
2022/07/07 05:29:09;;;;;;;7.75;2.28;;;18.90;99.90;;;;;;4994141;28;20081;-47
2022/07/07 05:31:35;;;;;;;3.20;1.85;;;18.80;99.90;;;;;;4995591;28;20097;-49
2022/07/07 05:34:01;;;;;;;4.22;2.03;;;18.80;99.90;;;;;;4994477;28;20034;-47
2022/07/07 05:36:26;;;;;;;2.33;1.98;;;18.70;99.90;;;;;;4994126;28;20028;-48
2022/07/07 05:38:52;;;;;;;2.58;2.10;;;18.60;99.90;;;;;;4994319;28;20451;-49
2022/07/07 05:41:18;;;;;;;5.57;2.03;;;18.60;99.90;;;;;;4993895;28;20030;-49
2022/07/07 05:43:44;;;;;;;2.70;1.90;;;18.60;99.90;;;;;;4993973;28;20030;-48
2022/07/07 05:46:10;;;;;;;5.40;2.50;;;18.70;99.90;;;;;;4994064;28;20054;-48
2022/07/07 05:48:36;;;;;;;2.92;1.83;;;18.70;99.90;;;;;;4995522;28;20045;-49
2022/07/07 05:51:02;;;;;;;5.03;1.88;;;18.70;99.90;;;;;;4993751;28;20114;-48
2022/07/07 05:53:27;;;;;;;9.98;3.83;;;18.70;99.90;;;;;;4995147;28;20030;-49
2022/07/07 05:55:53;;;;;;;8.55;4.25;;;18.70;99.90;;;;;;4994384;28;20027;-48
2022/07/07 05:58:19;;;;;;;7.25;2.10;;;18.80;99.90;;;;;;4993777;28;20054;-48
2022/07/07 06:00:44;;;;;;;4.68;1.60;;;18.80;99.90;;;;;;4956705;28;1111781;-48
2022/07/07 06:03:10;;;;;;;6.25;2.33;;;19.00;99.90;;;;;;4995956;28;20034;-48
2022/07/07 06:05:36;;;;;;;6.18;2.17;;;19.10;99.90;;;;;;4995954;28;20436;-48
2022/07/07 06:08:02;;;;;;;2.88;1.98;;;19.20;99.90;;;;;;4994693;28;20022;-49
2022/07/07 06:10:27;;;;;;;4.32;2.20;;;19.30;99.90;;;;;;4994790;28;20022;-49
2022/07/07 06:12:53;;;;;;;4.00;1.60;;;19.40;99.90;;;;;;4996270;28;20026;-55
2022/07/07 06:15:20;;;;;;;3.35;1.70;;;19.60;99.90;;;;;;4994445;28;20038;-48
2022/07/07 06:17:47;;;;;;;6.07;1.67;;;19.80;99.90;;;;;;4995709;28;20022;-54
2022/07/07 06:20:13;;;;;;;3.17;1.88;;;19.90;99.90;;;;;;4994392;28;20076;-51
2022/07/07 06:22:39;;;;;;;4.65;2.10;;;20.00;99.90;;;;;;4994632;28;20026;-53
2022/07/07 06:25:07;;;;;;;3.90;1.75;;;20.20;99.90;;;;;;4994324;28;20045;-50
2022/07/07 06:27:33;;;;;;;3.08;1.75;;;20.30;99.90;;;;;;4994327;28;20093;-52
2022/07/07 06:29:58;;;;;;;3.50;1.60;;;20.30;99.90;;;;;;4994526;28;20061;-50
2022/07/07 06:32:24;;;;;;;7.68;1.80;;;20.40;99.90;;;;;;4994103;28;20033;-54
2022/07/07 06:34:50;;;;;;;5.43;2.53;;;20.50;99.90;;;;;;4995375;28;20065;-54
2022/07/07 06:37:15;;;;;;;3.00;2.20;;;20.50;99.90;;;;;;4994440;28;20480;-48
2022/07/07 06:39:41;;;;;;;3.50;1.70;;;20.60;99.90;;;;;;4994498;28;20058;-52
2022/07/07 06:42:06;;;;;;;7.65;2.17;;;20.80;99.90;;;;;;4993995;28;20440;-48
2022/07/07 06:44:32;;;;;;;3.20;1.58;;;20.90;99.90;;;;;;4994815;28;20033;-50
2022/07/07 06:46:59;;;;;;;2.05;1.63;;;21.10;99.90;;;;;;4995201;28;20026;-49
2022/07/07 06:49:25;;;;;;;8.35;2.08;;;21.30;99.90;;;;;;4993891;28;20088;-52
2022/07/07 06:51:51;;;;;;;3.15;1.77;;;21.30;99.90;;;;;;4993864;28;20385;-48
2022/07/07 06:54:16;;;;;;;5.22;1.98;;;21.20;99.90;;;;;;4993806;28;20038;-48
2022/07/07 06:56:42;;;;;;;4.13;1.50;;;21.10;99.90;;;;;;4993960;28;20124;-48
2022/07/07 06:59:07;;;;;;;4.85;1.92;;;21.00;99.90;;;;;;4994802;28;20069;-48
2022/07/07 07:01:33;;;;;;;4.88;1.52;;;20.90;99.90;;;;;;4994887;28;20034;-50
2022/07/07 07:03:59;;;;;;;5.03;1.63;;;20.80;99.90;;;;;;4994872;28;20025;-48
2022/07/07 07:06:25;;;;;;;2.45;1.65;;;20.70;99.90;;;;;;4995110;28;20085;-50
2022/07/07 07:09:03;;;;;;;3.63;1.92;;;20.70;99.90;;;;;;4994610;28;20015;-52
2022/07/07 07:11:29;;;;;;;2.17;1.80;;;20.70;99.90;;;;;;4991690;28;20019;-51
2022/07/07 07:13:56;;;;;;;4.32;1.85;;;20.60;99.90;;;;;;4991566;28;20034;-51
2022/07/07 07:16:22;;;;;;;6.75;2.33;;;20.60;99.90;;;;;;4991676;28;20428;-55
2022/07/07 07:18:48;;;;;;;5.22;2.10;;;20.60;99.90;;;;;;4992555;28;20030;-50
2022/07/07 07:21:14;;;;;;;4.43;1.73;;;20.80;99.90;;;;;;4992040;28;20026;-48
2022/07/07 07:23:39;;;;;;;3.30;1.85;;;21.20;99.90;;;;;;4993188;28;20481;-53
2022/07/07 07:26:06;;;;;;;3.20;1.50;;;22.10;99.90;;;;;;4993221;28;20022;-49
2022/07/07 07:28:33;;;;;;;2.28;1.50;;;23.70;99.90;;;;;;4994048;28;20061;-51
2022/07/07 07:30:59;;;;;;;5.05;1.50;;;25.10;99.90;;;;;;4994099;28;20023;-51
2022/07/07 07:33:25;;;;;;;3.10;1.60;;;26.00;99.90;;;;;;4994021;28;20034;-57
2022/07/07 07:35:50;;;;;;;1.65;1.55;;;26.30;99.90;;;;;;4994463;28;20026;-52
2022/07/07 07:38:16;;;;;;;3.70;1.40;;;26.70;99.90;;;;;;4994269;28;20026;-53
2022/07/07 07:40:42;;;;;;;3.13;1.90;;;26.80;99.90;;;;;;4992898;28;20030;-56
2022/07/07 07:43:08;;;;;;;4.68;1.77;;;27.20;99.90;;;;;;4994294;28;20118;-52
2022/07/07 07:45:33;;;;;;;1.85;1.50;;;27.00;99.90;;;;;;4993372;28;20026;-52
2022/07/07 07:48:02;;;;;;;3.45;1.70;;;26.50;99.90;;;;;;4993973;28;20097;-48
2022/07/07 07:50:29;;;;;;;3.65;1.58;;;26.00;99.90;;;;;;4994043;28;20018;-50
2022/07/07 07:52:54;;;;;;;5.82;1.60;;;25.40;99.90;;;;;;4993102;28;20030;-51
2022/07/07 07:55:21;;;;;;;8.65;2.33;;;24.90;99.90;;;;;;4992893;28;20026;-50
2022/07/07 07:57:48;;;;;;;4.07;1.75;;;24.40;99.90;;;;;;4993224;28;20048;-48
2022/07/07 08:00:16;;;;;;;4.40;1.60;;;24.00;99.90;;;;;;4994152;28;20045;-50
2022/07/07 08:02:43;;;;;;;3.90;2.00;;;23.60;99.90;;;;;;4993134;28;20121;-49
2022/07/07 08:05:11;;;;;;;4.75;1.70;;;23.40;99.90;;;;;;4993631;28;20026;-50
2022/07/07 08:07:37;;;;;;;3.28;1.90;;;23.10;99.90;;;;;;4992777;28;20022;-51
2022/07/07 08:10:03;;;;;;;3.75;1.60;;;22.90;99.90;;;;;;4993538;28;20122;-50
2022/07/07 08:12:29;;;;;;;2.75;1.35;;;22.90;99.90;;;;;;4992651;28;20022;-54
2022/07/07 08:14:55;;;;;;;1.52;1.38;;;22.90;99.90;;;;;;4994050;28;20149;-48
2022/07/07 08:17:21;;;;;;;3.50;1.90;;;22.90;99.90;;;;;;4993502;28;20061;-50
2022/07/07 08:19:46;;;;;;;2.10;1.50;;;22.70;99.90;;;;;;4993807;28;20125;-51
2022/07/07 08:22:12;;;;;;;2.55;1.27;;;22.70;99.90;;;;;;4992905;28;20027;-48
2022/07/07 08:24:38;;;;;;;2.92;1.58;;;22.60;99.90;;;;;;4992593;28;20393;-52
2022/07/07 08:27:04;;;;;;;2.17;1.00;;;22.30;99.90;;;;;;4992464;28;20034;-49
2022/07/07 08:29:30;;;;;;;4.25;1.60;;;22.10;99.90;;;;;;4992552;28;20042;-51
2022/07/07 08:31:56;;;;;;;4.72;1.33;;;22.00;99.90;;;;;;4994084;28;20082;-49
2022/07/07 08:34:22;;;;;;;3.58;1.40;;;21.90;99.90;;;;;;4992572;28;20027;-53
2022/07/07 08:36:47;;;;;;;2.45;1.80;;;22.00;99.90;;;;;;4992439;28;20022;-50
2022/07/07 08:39:13;;;;;;;6.28;1.55;;;22.20;99.90;;;;;;4994207;28;20073;-50
2022/07/07 08:41:39;;;;;;;3.47;1.60;;;22.20;99.90;;;;;;4993035;28;20377;-49
2022/07/07 08:44:05;;;;;;;1.45;1.30;;;22.30;99.90;;;;;;4992501;28;20029;-48
2022/07/07 08:46:31;;;;;;;2.55;1.50;;;22.40;99.90;;;;;;4993687;28;20022;-53
2022/07/07 08:48:56;;;;;;;3.55;1.27;;;22.70;99.90;;;;;;4992419;28;20417;-55
2022/07/07 08:51:22;;;;;;;5.30;1.60;;;23.00;99.90;;;;;;4992335;28;20022;-50
2022/07/07 08:53:48;;;;;;;1.67;1.30;;;23.30;99.90;;;;;;4992402;28;20057;-51
2022/07/07 08:56:18;;;;;;;2.08;1.50;;;23.60;99.90;;;;;;4992438;28;20030;-51
2022/07/07 08:58:45;;;;;;;1.60;1.13;;;23.50;99.90;;;;;;4992696;28;20026;-52
2022/07/07 09:01:10;;;;;;;2.25;1.10;;;23.40;99.90;;;;;;4992365;28;20034;-52
2022/07/07 09:03:37;;;;;;;1.70;1.17;;;23.30;99.90;;;;;;4995209;28;20381;-52
2022/07/07 09:06:03;;;;;;;0.90;0.80;;;23.20;99.90;;;;;;4997175;28;20022;-50
2022/07/07 09:08:30;;;;;;;1.55;1.00;;;23.00;99.90;;;;;;4996099;28;20501;-49
2022/07/07 09:10:57;;;;;;;1.10;1.00;;;23.00;99.90;;;;;;4997038;28;20053;-49
2022/07/07 09:13:33;;;;;;;0.95;0.95;;;23.00;99.90;;;;;;4997240;28;20030;-51
2022/07/07 09:16:04;;;;;;;1.23;1.10;;;23.00;99.90;;;;;;4997240;28;20492;-51
2022/07/07 09:18:44;;;;;;;2.67;1.13;;;22.90;99.90;;;;;;4996010;28;20037;-51
2022/07/07 09:21:28;;;;;;;1.10;1.00;;;22.90;99.90;;;;;;4996773;28;20038;-49
2022/07/07 09:23:59;;;;;;;1.95;0.75;;;22.90;99.90;;;;;;4995577;28;20018;-52
2022/07/07 09:26:45;;;;;;;0.68;0.63;;;22.90;99.90;;;;;;4997168;28;20469;-54
2022/07/07 09:29:17;;;;;;;1.05;0.73;;;23.40;99.90;;;;;;4995476;28;20084;-55
2022/07/07 09:31:55;;;;;;;1.10;0.80;;;23.80;99.90;;;;;;4996489;28;20097;-54
2022/07/07 09:34:23;;;;;;;1.08;0.82;;;24.20;99.90;;;;;;4995463;28;20023;-50
2022/07/07 09:39:55;;;;;;;0.80;0.80;;;25.40;99.90;;;;;;5013906;28;20030;-53
2022/07/07 09:42:32;;;;;;;1.17;0.60;;;25.80;99.90;;;;;;5013847;28;20028;-49
2022/07/07 09:45:01;;;;;;;1.85;0.93;;;25.80;99.90;;;;;;4994990;28;20061;-52
2022/07/07 09:47:28;;;;;;;1.58;1.13;;;25.70;99.90;;;;;;4996429;28;20022;-48
2022/07/07 09:50:08;;;;;;;1.33;1.05;;;26.00;99.90;;;;;;4995168;28;20089;-52
2022/07/07 09:52:36;;;;;;;1.10;0.90;;;26.10;99.90;;;;;;4995025;28;20041;-50
2022/07/07 09:55:05;;;;;;;2.00;1.10;;;25.90;99.90;;;;;;4995054;28;20064;-50
2022/07/07 09:57:30;;;;;;;3.08;0.80;;;25.60;99.90;;;;;;4995451;28;20113;-49
2022/07/07 09:59:56;;;;;;;1.48;0.80;;;25.40;99.90;;;;;;4995142;28;20169;-47
2022/07/07 10:02:24;;;;;;;1.38;0.82;;;25.30;99.90;;;;;;4995100;28;20102;-52
2022/07/07 10:04:53;;;;;;;1.00;0.80;;;25.20;99.90;;;;;;4995073;28;20464;-50
2022/07/07 10:07:24;;;;;;;2.20;0.85;;;25.10;99.90;;;;;;4994828;28;20026;-47
2022/07/07 10:09:53;;;;;;;3.25;1.67;;;25.10;99.90;;;;;;4995006;28;20026;-49
2022/07/07 10:12:24;;;;;;;2.55;1.45;;;25.10;99.90;;;;;;4995896;28;20027;-50
2022/07/07 10:14:53;;;;;;;2.88;1.60;;;25.20;99.90;;;;;;4993491;28;20031;-52
2022/07/07 10:17:20;;;;;;;2.88;1.60;;;25.10;99.90;;;;;;4994570;28;20094;-47
2022/07/07 10:19:46;;;;;;;2.10;1.58;;;25.00;99.90;;;;;;4994664;28;20054;-53
2022/07/07 10:22:13;;;;;;;7.93;2.03;;;24.60;99.90;;;;;;4995595;28;20053;-48
2022/07/07 10:24:40;;;;;;;2.28;1.30;;;24.30;99.90;;;;;;4994613;28;20174;-46
2022/07/07 10:27:07;;;;;;;2.45;1.27;;;24.00;99.90;;;;;;4994505;28;20027;-51
2022/07/07 10:29:45;;;;;;;4.07;1.10;;;23.50;99.90;;;;;;4994562;28;20026;-46
2022/07/07 10:32:12;;;;;;;1.85;1.30;;;23.10;99.90;;;;;;4994210;28;20034;-47
2022/07/07 10:34:40;;;;;;;2.05;1.52;;;22.90;99.90;;;;;;4995409;28;20050;-50
2022/07/07 10:37:09;;;;;;;2.38;1.05;;;22.80;99.90;;;;;;4994384;28;20090;-51
2022/07/07 10:39:37;;;;;;;1.00;0.82;;;22.70;99.90;;;;;;4994093;28;20057;-48
2022/07/07 10:42:14;;;;;;;6.28;1.02;;;22.80;99.90;;;;;;4993961;28;20481;-54
2022/07/07 10:44:41;;;;;;;1.88;0.95;;;23.10;99.90;;;;;;4995204;28;20027;-50
2022/07/07 10:47:13;;;;;;;1.70;0.98;;;23.30;99.90;;;;;;4994188;28;20026;-52
2022/07/07 10:49:43;;;;;;;0.70;0.70;;;23.60;99.90;;;;;;4994688;28;20030;-54
2022/07/07 10:52:13;;;;;;;2.42;0.95;;;23.90;99.90;;;;;;4995135;28;20061;-56
2022/07/07 10:54:44;;;;;;;1.85;0.73;;;24.20;99.90;;;;;;4994206;28;20034;-55
2022/07/07 10:57:12;;;;;;;1.92;0.82;;;24.30;99.90;;;;;;4994453;28;20058;-48
2022/07/07 10:59:58;;;;;;;3.80;1.00;;;24.30;99.90;;;;;;4994503;28;20100;-55
2022/07/07 11:02:34;;;;;;;2.78;0.80;;;24.20;99.90;;;;;;4995431;28;20124;-50
2022/07/07 11:05:24;;;;;;;1.42;0.70;;;24.40;99.90;;;;;;4994841;28;20033;-50
2022/07/07 11:07:55;;;;;;;1.73;1.15;;;24.40;99.90;;;;;;4993566;28;20026;-48
2022/07/07 11:10:45;;;;;;;1.52;1.23;;;24.40;99.90;;;;;;4994858;28;20221;-53
2022/07/07 11:13:34;;;;;;;1.75;0.80;;;24.40;99.90;;;;;;4993495;28;20041;-54
2022/07/07 11:16:22;;;;;;;2.10;0.80;;;24.60;99.90;;;;;;4993560;28;20030;-52
2022/07/07 11:18:58;;;;;;;4.32;1.10;;;24.60;99.90;;;;;;4993323;28;20022;-51
2022/07/07 11:21:34;;;;;;;2.45;0.70;;;24.70;99.90;;;;;;4994572;28;20026;-48
2022/07/07 11:24:01;;;;;;;1.02;0.90;;;24.80;99.90;;;;;;4994483;28;20018;-51
2022/07/07 11:26:26;;;;;;;2.38;0.93;;;24.90;99.90;;;;;;4992862;28;20030;-53
2022/07/07 11:28:55;;;;;;;2.38;0.90;;;24.80;99.90;;;;;;4993169;28;20073;-52
2022/07/07 11:31:21;;;;;;;1.55;0.70;;;24.70;99.90;;;;;;4993756;28;20030;-52
2022/07/07 11:33:56;;;;;;;1.40;0.60;;;24.70;99.90;;;;;;4993198;28;20084;-51
2022/07/07 11:36:24;;;;;;;3.60;0.70;;;24.90;99.90;;;;;;4994462;28;20106;-49
2022/07/07 11:39:03;;;;;;;2.92;0.70;;;24.90;99.90;;;;;;4994626;28;20022;-50
2022/07/07 11:41:40;;;;;;;1.33;0.70;;;25.10;99.90;;;;;;4993697;28;20053;-48
2022/07/07 11:44:05;;;;;;;1.48;0.70;;;25.30;99.90;;;;;;4993839;28;20022;-51
2022/07/07 11:46:31;;;;;;;2.92;0.82;;;25.50;99.90;;;;;;4993080;28;20129;-55
2022/07/07 11:48:57;;;;;;;2.05;0.70;;;25.40;99.90;;;;;;4994199;28;20026;-48
2022/07/07 11:51:29;;;;;;;0.70;0.50;;;25.30;99.90;;;;;;4993077;28;20034;-55
2022/07/07 11:53:59;;;;;;;0.80;0.80;;;25.00;99.90;;;;;;4992919;28;20030;-52
2022/07/07 11:56:33;;;;;;;2.42;0.50;;;25.00;99.90;;;;;;4993290;28;20481;-54
2022/07/07 11:59:00;;;;;;;1.33;0.50;;;24.90;99.90;;;;;;4994433;28;20026;-49
2022/07/07 12:01:34;;;;;;;0.65;0.40;;;24.90;99.90;;;;;;4993885;28;20033;-55
2022/07/07 12:04:17;;;;;;;2.70;0.50;;;25.10;99.90;;;;;;4994390;28;20018;-47
2022/07/07 12:06:44;;;;;;;0.73;0.57;;;24.90;99.90;;;;;;4994001;28;20110;-53
2022/07/07 12:09:10;;;;;;;0.63;0.60;;;25.00;99.90;;;;;;4992727;28;20026;-48
2022/07/07 12:11:42;;;;;;;1.65;1.27;;;25.00;99.90;;;;;;4992702;28;20029;-49
2022/07/07 12:14:12;;;;;;;2.80;0.77;;;25.10;99.90;;;;;;4992665;28;20085;-52
2022/07/07 12:16:42;;;;;;;0.82;0.50;;;25.00;99.90;;;;;;4992974;28;20023;-48
2022/07/07 12:19:08;;;;;;;0.50;0.40;;;24.80;99.90;;;;;;4992883;28;20034;-50
2022/07/07 12:21:42;;;;;;;0.47;0.35;;;24.70;99.90;;;;;;4992624;28;20026;-52
2022/07/07 12:24:11;;;;;;;1.20;0.40;;;24.70;99.90;;;;;;4992729;28;20497;-55
2022/07/07 12:26:43;;;;;;;0.98;0.63;;;24.60;99.90;;;;;;4992550;28;20090;-53
2022/07/07 12:29:09;;;;;;;1.75;0.73;;;24.70;99.90;;;;;;4994070;28;20026;-50
2022/07/07 12:31:35;;;;;;;0.80;0.50;;;24.60;99.90;;;;;;4993692;28;20038;-48
2022/07/07 12:34:24;;;;;;;1.20;0.70;;;24.60;99.90;;;;;;4992451;28;20031;-49
2022/07/07 12:36:50;;;;;;;2.85;0.50;;;24.70;99.90;;;;;;4993374;28;20057;-49
2022/07/07 12:39:16;;;;;;;0.95;0.38;;;24.70;99.90;;;;;;4994838;28;20054;-51
2022/07/07 12:41:42;;;;;;;1.45;0.60;;;24.90;99.90;;;;;;4996593;28;20030;-51
2022/07/07 12:44:12;;;;;;;1.20;0.50;;;24.90;99.90;;;;;;4996655;28;20030;-50
2022/07/07 12:46:39;;;;;;;0.83;0.30;;;24.70;99.90;;;;;;4997503;28;20018;-53
2022/07/07 12:49:04;;;;;;;0.47;0.35;;;24.70;99.90;;;;;;4997358;28;20014;-50
2022/07/07 12:51:31;;;;;;;0.65;0.32;;;24.90;99.90;;;;;;4996106;28;20033;-50